Time;durP1;ratioP1;P1;durP2;ratioP2;P2;SDS_P1;SDS_P2;PMS_P1;PMS_P2;Temp;Humidity;BMP_temperature;BMP_pressure;BME280_temperature;BME280_humidity;BME280_pressure;Samples;Min_cycle;Max_cycle;Signal;HPM_P1;HPM_P2
2021/05/11 00:00:48;;;;;;;9.60;6.22;;;;;;;-150.07;41.70;56349.00;4972238;28;20026;-81
2021/05/11 00:03:15;;;;;;;10.40;6.20;;;;;;;-150.07;41.41;56459.75;4972720;28;20503;-80
2021/05/11 00:05:41;;;;;;;9.77;6.47;;;;;;;-150.07;41.64;56424.25;4991742;28;20054;-79
2021/05/11 00:08:08;;;;;;;10.77;6.55;;;;;;;-150.07;41.51;56372.00;4993064;28;20030;-81
2021/05/11 00:10:35;;;;;;;8.60;6.53;;;;;;;-150.07;41.87;56315.56;4992211;28;20476;-80
2021/05/11 00:13:02;;;;;;;11.05;7.78;;;;;;;-150.07;41.85;56392.88;4990080;28;20483;-80
2021/05/11 00:15:30;;;;;;;12.32;6.13;;;;;;;-150.07;41.74;56440.97;4993285;28;20032;-80
2021/05/11 00:17:57;;;;;;;9.95;6.40;;;;;;;-150.07;41.81;56447.22;4993325;28;20030;-80
2021/05/11 00:20:24;;;;;;;8.48;5.93;;;;;;;-150.07;41.54;56422.16;4991987;28;20030;-82
2021/05/11 00:22:51;;;;;;;9.85;5.55;;;;;;;-150.07;41.27;56426.31;4994593;28;20494;-79
2021/05/11 00:25:20;;;;;;;6.82;5.70;;;;;;;-150.07;41.40;56403.34;4990434;28;20034;-80
2021/05/11 00:27:47;;;;;;;16.95;9.10;;;;;;;-150.07;41.16;56376.16;4990649;28;20026;-80
2021/05/11 00:30:15;;;;;;;19.73;6.88;;;;;;;-150.07;40.54;56340.66;4991660;28;20057;-80
2021/05/11 00:32:42;;;;;;;10.30;6.07;;;;;;;-150.07;40.88;56388.72;4992708;28;20106;-80
2021/05/11 00:35:12;;;;;;;12.77;6.95;;;;;;;-150.07;40.94;56451.41;4993035;28;20479;-79
2021/05/11 00:37:39;;;;;;;10.98;6.25;;;;;;;-150.07;41.09;56392.88;4990536;28;20368;-80
2021/05/11 00:40:07;;;;;;;10.10;6.75;;;;;;;-150.07;40.82;56386.63;4991388;28;20376;-79
2021/05/11 00:42:35;;;;;;;10.25;6.82;;;;;;;-150.07;40.69;56392.88;4984515;28;20483;-78
2021/05/11 00:45:04;;;;;;;8.45;6.07;;;;;;;-150.07;40.64;56346.91;4985849;28;20034;-80
2021/05/11 00:47:32;;;;;;;8.75;6.38;;;;;;;-150.07;40.64;56338.56;4992325;28;20042;-80
2021/05/11 00:49:59;;;;;;;8.75;5.75;;;;;;;-150.07;40.01;56380.34;4991770;28;20041;-79
2021/05/11 00:52:28;;;;;;;9.32;5.28;;;;;;;-150.07;40.54;56405.44;4992731;28;20407;-80
2021/05/11 00:54:56;;;;;;;7.85;5.35;;;;;;;-150.07;40.88;56409.59;4992812;28;20045;-80
2021/05/11 00:57:28;;;;;;;9.05;6.22;;;;;;;-150.07;39.93;56601.88;4992264;28;20030;-80
2021/05/11 00:59:57;;;;;;;11.00;5.38;;;;;;;-150.07;40.08;56606.06;4988774;28;20034;-80
2021/05/11 01:02:24;;;;;;;11.23;5.38;;;;;;;-150.07;40.39;56397.06;4990571;28;20029;-78
2021/05/11 01:04:52;;;;;;;11.73;5.53;;;;;;;-150.07;40.09;56392.88;4967222;28;20039;-79
2021/05/11 01:07:19;;;;;;;11.80;6.53;;;;;;;-150.07;41.27;56397.06;4971296;28;20022;-79
2021/05/11 01:09:47;;;;;;;8.05;4.38;;;;;;;-150.07;40.41;56332.28;4963406;28;20568;-80
2021/05/11 01:12:14;;;;;;;6.22;3.65;;;;;;;-150.07;37.41;56629.06;4973816;28;20085;-79
2021/05/11 01:14:41;;;;;;;5.53;3.63;;;;;;;-150.07;37.66;56359.47;4971631;28;20039;-80
2021/05/11 01:17:15;;;;;;;6.18;3.75;;;;;;;-150.07;37.22;56351.09;4971933;28;20109;-81
2021/05/11 01:24:48;;;;;;;7.95;3.38;;;;;;;-150.07;35.88;56384.53;4970651;28;20431;-79
2021/05/11 01:47:05;;;;;;;4.93;2.10;;;;;;;-150.07;32.00;56328.09;4890168;29;20040;-81
2021/05/11 02:24:40;;;;;;;3.22;2.08;;;;;;;-150.07;29.93;56631.16;4993830;28;20049;-87
2021/05/11 02:27:07;;;;;;;2.92;2.25;;;;;;;-150.07;30.27;56273.78;4992685;28;20033;-86
2021/05/11 02:29:33;;;;;;;2.38;1.70;;;;;;;-150.07;29.15;56313.47;4987368;28;20038;-86
2021/05/11 02:32:00;;;;;;;9.02;2.47;;;;;;;-150.07;29.46;56275.88;4970035;28;20113;-88
2021/05/11 02:34:27;;;;;;;1.90;1.75;;;;;;;-150.07;29.83;56587.25;4978349;28;20065;-87
2021/05/11 02:36:54;;;;;;;9.88;3.00;;;;;;;-150.07;29.80;56298.84;4978302;28;20049;-87
2021/05/11 02:39:21;;;;;;;4.18;2.15;;;;;;;-150.07;29.00;56351.09;4970723;28;20034;-86
2021/05/11 02:41:48;;;;;;;1.98;1.88;;;;;;;-150.07;28.65;56351.09;4993047;28;20506;-86
2021/05/11 02:44:17;;;;;;;5.30;2.90;;;;;;;-150.07;28.90;56346.91;4982007;28;20082;-86
2021/05/11 02:46:44;;;;;;;3.67;2.10;;;;;;;-150.07;28.97;56346.91;4975658;28;20121;-88
2021/05/11 02:49:12;;;;;;;5.95;3.15;;;;;;;-150.07;29.34;56307.22;4977049;28;20543;-88
2021/05/11 02:51:40;;;;;;;3.95;3.08;;;;;;;-150.07;29.63;56271.69;4976696;28;20389;-87
2021/05/11 02:54:07;;;;;;;5.43;2.25;;;;;;;-150.07;29.32;56254.97;4976078;28;20026;-90
2021/05/11 02:56:33;;;;;;;5.18;2.55;;;;;;;-150.07;29.44;56250.78;4977894;28;20023;-86
2021/05/11 02:59:00;;;;;;;9.50;2.83;;;;;;;-150.07;28.53;56321.84;4975099;28;20081;-86
2021/05/11 03:01:27;;;;;;;6.75;2.90;;;;;;;-150.07;28.93;56522.47;4972586;28;20026;-87
2021/05/11 03:03:54;;;;;;;5.72;2.55;;;;;;;-150.07;29.16;56288.41;4975145;28;20047;-86
2021/05/11 03:06:21;;;;;;;4.45;3.15;;;;;;;-150.07;29.33;56254.97;4978539;28;20122;-88
2021/05/11 03:08:48;;;;;;;5.38;2.97;;;;;;;-150.07;29.15;56328.09;4979826;28;20030;-86
2021/05/11 03:11:14;;;;;;;5.32;3.20;;;;;;;-150.07;29.66;56275.88;4965901;28;20046;-88
2021/05/11 03:13:41;;;;;;;3.85;2.95;;;;;;;-150.07;28.94;56259.16;4991674;28;20034;-86
2021/05/11 03:16:08;;;;;;;5.85;2.45;;;;;;;-150.07;29.40;56206.91;4995149;28;20057;-88
2021/05/11 03:18:35;;;;;;;4.90;2.58;;;;;;;-150.07;29.47;56300.94;4975512;28;20484;-88
2021/05/11 03:21:02;;;;;;;7.43;3.65;;;;;;;-150.07;29.62;56545.47;4974150;28;20035;-87
2021/05/11 03:23:29;;;;;;;7.40;4.13;;;;;;;-150.07;29.99;56317.66;4975048;28;20033;-86
2021/05/11 03:25:55;;;;;;;4.47;3.42;;;;;;;-150.07;29.88;56315.56;4974918;28;20400;-87
2021/05/11 03:28:22;;;;;;;7.78;3.72;;;;;;;-150.07;29.81;56271.69;4979341;28;20443;-86
2021/05/11 03:30:49;;;;;;;6.65;3.67;;;;;;;-150.07;29.83;56407.53;4965620;28;20031;-87
2021/05/11 03:33:16;;;;;;;7.22;3.28;;;;;;;-150.07;29.93;56292.59;4993009;28;20033;-87
2021/05/11 03:35:49;;;;;;;11.98;3.97;;;;;;;-150.07;29.88;56284.22;4988644;28;20433;-88
2021/05/11 03:38:16;;;;;;;5.95;3.78;;;;;;;-150.07;30.32;56209.00;4989335;28;20038;-87
2021/05/11 03:40:43;;;;;;;8.10;4.03;;;;;;;-150.07;30.45;56292.59;4980903;28;20027;-85
2021/05/11 03:43:20;;;;;;;7.00;3.88;;;;;;;-150.07;29.97;56238.25;4999481;28;20041;-88
2021/05/11 03:45:59;;;;;;;11.20;4.38;;;;;;;-150.07;30.03;56221.53;4980375;28;20507;-87
2021/05/11 03:48:26;;;;;;;12.40;5.20;;;;;;;-150.07;29.94;56275.88;4974161;28;20610;-87
2021/05/11 03:50:53;;;;;;;9.00;4.82;;;;;;;-150.07;30.04;56326.03;4980797;28;20038;-86
2021/05/11 03:53:20;;;;;;;9.32;5.47;;;;;;;-150.07;29.69;56353.19;4982775;28;20116;-88
2021/05/11 03:55:47;;;;;;;11.45;5.70;;;;;;;-150.07;29.94;56334.38;4999283;28;20030;-84
2021/05/11 03:58:14;;;;;;;11.43;5.93;;;;;;;-150.07;29.79;56261.22;4980764;28;20019;-86
2021/05/11 04:00:41;;;;;;;8.27;5.95;;;;;;;-150.07;29.70;56549.63;4996810;28;20372;-87
2021/05/11 04:03:26;;;;;;;14.00;5.65;;;;;;;-150.07;30.32;56280.03;4979749;28;20026;-87
2021/05/11 04:05:55;;;;;;;8.15;6.15;;;;;;;-150.07;30.67;56340.66;4994470;28;20057;-87
2021/05/11 04:14:01;;;;;;;12.43;6.45;;;;;;;-150.07;30.36;56259.16;5015503;28;20053;-86
2021/05/11 04:16:29;;;;;;;7.80;5.72;;;;;;;-150.07;30.20;56277.94;4982626;28;20467;-86
2021/05/11 04:18:57;;;;;;;10.23;5.90;;;;;;;-150.07;30.25;56537.09;4964925;28;20023;-87
2021/05/11 04:21:24;;;;;;;10.25;6.18;;;;;;;-150.07;30.41;56204.81;4978550;28;20030;-87
2021/05/11 04:23:51;;;;;;;14.68;7.13;;;;;;;-150.07;30.23;56288.41;5003696;28;20030;-88
2021/05/11 04:26:20;;;;;;;10.20;6.28;;;;;;;-150.07;30.24;56183.91;4962545;28;20030;-87
2021/05/11 04:28:48;;;;;;;13.18;6.70;;;;;;;-150.07;30.37;56359.47;4976398;28;20023;-87
2021/05/11 04:31:16;;;;;;;11.32;6.07;;;;;;;-150.07;30.47;56250.78;4995902;28;20137;-90
2021/05/11 04:33:43;;;;;;;9.23;5.93;;;;;;;-150.07;30.11;56420.06;4987633;28;20034;-88
2021/05/11 04:36:11;;;;;;;7.72;6.20;;;;;;;-150.07;30.55;56259.16;4984766;28;20866;-89
2021/05/11 04:38:38;;;;;;;12.65;6.20;;;;;;;-150.07;30.60;56273.78;4979170;28;20030;-90
2021/05/11 04:41:05;;;;;;;8.07;6.57;;;;;;;-150.07;29.67;56315.56;4978075;28;20110;-89
2021/05/11 04:43:35;;;;;;;14.05;7.97;;;;;;;-150.07;30.07;56246.59;4979361;28;20038;-89
2021/05/11 04:48:52;;;;;;;10.38;5.78;;;;;;;-150.07;30.11;56259.16;4996937;28;20030;-90
2021/05/11 04:51:21;;;;;;;6.65;4.97;;;;;;;-150.07;29.99;56242.44;4978569;28;20031;-88
2021/05/11 04:53:48;;;;;;;10.05;6.15;;;;;;;-150.07;30.52;56342.72;4980259;28;20031;-89
2021/05/11 04:56:15;;;;;;;12.82;5.75;;;;;;;-150.07;29.80;56196.44;4984457;28;20396;-88
2021/05/11 04:58:42;;;;;;;8.48;5.32;;;;;;;-150.07;30.04;56286.31;4985665;28;20034;-89
2021/05/11 05:01:09;;;;;;;9.57;5.43;;;;;;;-150.07;30.22;56209.00;4982441;28;20066;-88
2021/05/11 05:03:41;;;;;;;10.25;6.50;;;;;;;-150.07;29.54;56250.78;4982759;28;20069;-86
2021/05/11 05:06:08;;;;;;;12.38;6.13;;;;;;;-150.07;30.29;56202.72;4983556;28;20037;-89
2021/05/11 05:08:35;;;;;;;10.63;5.35;;;;;;;-150.07;30.08;56254.97;4988162;28;20034;-88
2021/05/11 05:11:02;;;;;;;10.20;4.72;;;;;;;-150.07;30.29;56234.06;5001408;28;20049;-88
2021/05/11 05:13:29;;;;;;;6.47;4.15;;;;;;;-150.07;29.46;56311.38;4976319;28;20053;-88
2021/05/11 05:15:58;;;;;;;7.35;4.45;;;;;;;-150.07;29.39;56221.53;4961868;28;20200;-87
2021/05/11 05:18:29;;;;;;;11.97;5.13;;;;;;;-150.07;29.46;56213.16;5000252;28;20029;-88
2021/05/11 05:20:56;;;;;;;4.97;4.15;;;;;;;-150.07;29.47;56231.97;4979129;28;20046;-88
2021/05/11 05:23:34;;;;;;;7.28;4.35;;;;;;;-150.07;29.26;56499.47;4984266;28;20033;-89
2021/05/11 05:26:06;;;;;;;13.05;4.43;;;;;;;-150.07;29.31;56265.41;4968723;28;20125;-89
2021/05/11 05:28:41;;;;;;;7.80;4.03;;;;;;;-150.07;29.48;56259.16;4982510;28;20436;-89
2021/05/11 05:31:09;;;;;;;8.05;5.15;;;;;;;-150.07;29.52;56171.38;4977830;28;20031;-87
2021/05/11 05:33:43;;;;;;;5.70;3.83;;;;;;;-150.07;29.81;56238.25;4979462;28;20034;-89
2021/05/11 05:36:13;;;;;;;8.30;3.47;;;;;;;-150.07;29.03;56259.16;4982373;28;20061;-87
2021/05/11 05:38:41;;;;;;;;;;;;;;;-150.07;29.62;56250.78;4995637;28;20026;-89
2021/05/11 05:41:11;;;;;;;6.20;4.28;;;;;;;-150.07;29.22;56175.56;4984970;28;20012;-89
2021/05/11 05:43:38;;;;;;;6.40;3.80;;;;;;;-150.07;29.37;56229.88;4980430;28;20092;-88
2021/05/11 05:46:08;;;;;;;5.13;3.20;;;;;;;-150.07;29.11;56499.47;4978152;28;20022;-89
2021/05/11 05:48:34;;;;;;;10.40;4.18;;;;;;;-150.07;29.09;56188.09;4980568;28;20026;-88
2021/05/11 05:51:03;;;;;;;6.38;3.78;;;;;;;-150.07;29.50;56194.38;4982414;28;20026;-88
2021/05/11 05:53:38;;;;;;;6.43;4.70;;;;;;;-150.07;29.57;56221.53;4988347;28;20034;-89
2021/05/11 05:56:06;;;;;;;6.63;4.22;;;;;;;-150.07;29.24;56353.19;4996704;28;20037;-89
2021/05/11 05:58:34;;;;;;;8.07;3.15;;;;;;;-150.07;29.32;56248.69;4989371;28;20120;-88
2021/05/11 06:01:07;;;;;;;6.10;3.08;;;;;;;-150.07;29.41;56179.72;4975936;28;20029;-88
2021/05/11 06:03:38;;;;;;;6.68;3.30;;;;;;;-150.07;29.62;56196.44;4978432;28;20038;-88
2021/05/11 06:06:08;;;;;;;5.75;2.78;;;;;;;-150.07;29.14;56225.72;4979343;28;20058;-89
2021/05/11 06:08:37;;;;;;;4.13;2.88;;;;;;;-150.07;28.78;56457.69;4974571;28;20033;-88
2021/05/11 06:13:42;;;;;;;4.53;2.70;;;;;;;-150.07;28.37;56273.78;4976842;28;20026;-89
2021/05/11 06:18:58;;;;;;;4.65;2.20;;;;;;;-150.07;27.50;56271.69;4976654;28;20439;-88
2021/05/11 06:21:31;;;;;;;3.45;2.17;;;;;;;-150.07;28.18;56394.97;4958234;28;20039;-89
2021/05/11 06:23:58;;;;;;;4.65;2.28;;;;;;;-150.07;27.86;56167.19;4975608;28;20034;-89
2021/05/11 06:26:25;;;;;;;5.32;2.88;;;;;;;-150.07;28.22;56430.50;4958746;28;20377;-88
2021/05/11 06:28:54;;;;;;;2.97;2.40;;;;;;;-150.07;27.95;56240.34;4958463;28;20438;-89
2021/05/11 06:31:21;;;;;;;2.88;1.48;;;;;;;-150.07;27.60;56183.91;4974955;28;20473;-89
2021/05/11 06:33:47;;;;;;;4.53;1.70;;;;;;;-150.07;27.24;56142.13;4958484;28;20408;-89
2021/05/11 06:36:14;;;;;;;2.95;1.63;;;;;;;-150.07;27.95;56234.06;4958168;28;20491;-89
2021/05/11 06:38:42;;;;;;;4.20;1.80;;;;;;;-150.07;27.37;56242.44;4957352;28;20029;-88
2021/05/11 06:41:10;;;;;;;5.45;1.95;;;;;;;-150.07;27.57;56257.06;4974617;28;20411;-88
2021/05/11 06:43:40;;;;;;;7.15;1.95;;;;;;;-150.07;27.24;56229.88;4957922;28;20030;-86
2021/05/11 06:49:08;;;;;;;7.25;2.30;;;;;;;-150.07;26.97;56198.53;4975509;28;20027;-90
2021/05/11 06:54:22;;;;;;;7.18;1.92;;;;;;;-150.07;27.00;56225.72;4936944;28;20039;-90
2021/05/11 06:56:48;;;;;;;4.97;2.25;;;;;;;-150.07;26.70;56221.53;4957897;28;20086;-88
2021/05/11 06:59:15;;;;;;;9.13;1.92;;;;;;;-150.07;27.06;56167.19;4958496;28;20027;-90
2021/05/11 07:01:42;;;;;;;5.35;2.25;;;;;;;-150.07;27.45;56221.53;4956752;28;20027;-89
2021/05/11 07:04:09;;;;;;;7.13;2.25;;;;;;;-150.07;27.43;56188.09;4961438;28;20058;-89
2021/05/11 07:06:38;;;;;;;7.38;2.00;;;;;;;-150.07;27.73;56246.59;4979454;28;20023;-95
2021/05/11 07:09:09;;;;;;;8.05;2.38;;;;;;;-150.07;26.98;56188.09;4977598;28;20394;-90
2021/05/11 07:14:02;;;;;;;3.42;1.63;;;;;;;-150.07;27.58;56179.72;4997423;28;20081;-84
2021/05/11 07:16:29;;;;;;;9.32;2.33;;;;;;;-150.07;27.55;56142.13;4990094;28;20519;-85
2021/05/11 07:18:56;;;;;;;2.10;1.85;;;;;;;-150.07;27.38;56163.00;4995761;28;20042;-85
2021/05/11 07:21:23;;;;;;;2.90;2.03;;;;;;;-150.07;27.27;56181.81;4976653;28;20058;-86
2021/05/11 07:23:50;;;;;;;7.00;2.75;;;;;;;-150.07;27.66;56234.06;4992680;28;20086;-87
2021/05/11 07:31:29;;;;;;;6.65;2.15;;;;;;;-150.07;27.15;56163.00;5010162;28;20038;-91
2021/05/11 07:33:57;;;;;;;5.35;2.03;;;;;;;-150.07;27.18;56100.31;4992410;28;20510;-92
2021/05/11 07:36:24;;;;;;;2.08;1.85;;;;;;;-150.07;27.58;56196.44;4991352;28;20022;-91
2021/05/11 07:38:52;;;;;;;5.00;2.08;;;;;;;-150.07;27.77;56204.81;4993686;28;20034;-92
2021/05/11 07:41:19;;;;;;;6.78;2.72;;;;;;;-150.07;27.20;56382.44;4992240;28;20073;-93
2021/05/11 07:43:52;;;;;;;4.60;1.85;;;;;;;-150.07;27.25;56158.84;4993813;28;20031;-91
2021/05/11 07:52:06;;;;;;;2.38;2.17;;;;;;;-150.07;27.26;56267.50;5021442;28;20105;-94
2021/05/11 08:05:22;;;;;;;5.28;2.60;;;;;;;-150.07;26.92;56227.78;4975024;28;20492;-92
2021/05/11 08:10:50;;;;;;;5.43;2.13;;;;;;;-150.07;27.49;56246.59;5009699;28;20069;-93
2021/05/11 08:16:12;;;;;;;4.13;1.63;;;;;;;-150.07;26.72;56213.16;5006444;28;20036;-92
2021/05/11 08:18:51;;;;;;;4.13;2.20;;;;;;;-150.07;27.24;56234.06;5001327;28;20030;-92
2021/05/11 08:29:45;;;;;;;5.90;2.15;;;;;;;-150.07;27.59;56204.81;5004045;28;20084;-92
2021/05/11 08:32:12;;;;;;;5.22;2.30;;;;;;;-150.07;27.42;56181.81;5000471;28;20022;-93
2021/05/11 08:34:39;;;;;;;6.13;2.13;;;;;;;-150.07;27.73;56188.09;4991898;28;20034;-93
2021/05/11 08:37:08;;;;;;;4.18;2.60;;;;;;;-150.07;27.94;56183.91;4997943;28;20037;-88
2021/05/11 08:39:35;;;;;;;3.72;2.42;;;;;;;-150.07;28.41;56194.38;5013043;28;20048;-92
2021/05/11 08:42:02;;;;;;;5.07;2.65;;;;;;;-150.07;27.99;56242.44;4992639;28;20018;-94
2021/05/11 08:44:29;;;;;;;5.75;2.63;;;;;;;-150.07;28.18;56229.88;4982637;28;20017;-95
2021/05/11 08:46:56;;;;;;;4.03;2.35;;;;;;;-150.07;28.40;56259.16;4982558;28;20023;-89
2021/05/11 08:49:23;;;;;;;7.47;2.58;;;;;;;-150.07;28.25;56054.34;4982847;28;20015;-93
2021/05/11 08:51:59;;;;;;;3.17;2.13;;;;;;;-150.07;28.58;56401.25;4967033;28;20025;-91
2021/05/11 09:06:03;;;;;;;4.28;3.00;;;;;;;-150.07;29.38;56248.69;5015880;28;20089;-92
2021/05/11 09:25:37;;;;;;;7.05;4.13;;;;;;;-150.07;29.98;56221.53;5003630;28;20130;-90
2021/05/11 09:28:33;;;;;;;8.48;3.13;;;;;;;-150.07;30.36;56246.59;4988698;28;20026;-93
2021/05/11 09:32:09;;;;;;;6.93;3.50;;;;;;;-150.07;30.19;56430.50;4997968;28;20488;-90
2021/05/11 09:34:58;;;;;;;4.60;2.45;;;;;;;-150.07;30.30;56447.22;4987720;28;20038;-88
2021/05/11 09:56:45;;;;;;;7.30;3.22;;;;;;;-150.07;31.20;56169.28;4999658;28;20137;-87
2021/05/11 10:42:06;;;;;;;11.32;3.88;;;;;;;-150.07;31.82;56171.38;5025826;28;20089;-92
2021/05/11 10:46:22;;;;;;;14.23;4.47;;;;;;;-150.07;32.15;56263.31;5004409;28;20053;-94
2021/05/11 10:48:19;;;;;;;7.37;3.93;;;;;;;-150.07;32.05;56271.69;5016438;28;20033;-94
2021/05/11 10:50:54;;;;;;;7.30;3.55;;;;;;;-150.07;32.23;56259.16;5010712;28;20069;-94
2021/05/11 10:53:54;;;;;;;3.83;3.33;;;;;;;-150.07;32.42;56252.88;5010871;28;20124;-91
2021/05/11 10:56:29;;;;;;;10.15;4.15;;;;;;;-150.07;32.66;56254.97;4986634;28;20026;-93
2021/05/11 10:59:24;;;;;;;7.20;4.55;;;;;;;-150.07;32.91;56271.69;4987414;28;20034;-93
2021/05/11 11:02:04;;;;;;;9.52;4.25;;;;;;;-150.07;33.04;56238.25;4988816;28;20034;-92
2021/05/11 11:04:47;;;;;;;8.02;3.78;;;;;;;-150.07;33.32;56484.84;4979453;28;20147;-92
2021/05/11 11:07:15;;;;;;;6.50;4.05;;;;;;;-150.07;33.26;56221.53;4983433;28;20049;-92
2021/05/11 11:09:54;;;;;;;10.45;4.38;;;;;;;-150.07;33.43;56240.34;4989551;28;20023;-92
2021/05/11 11:12:22;;;;;;;11.33;4.70;;;;;;;-150.07;33.69;56271.69;4982985;28;20042;-85
2021/05/11 11:14:49;;;;;;;10.80;4.25;;;;;;;-150.07;33.87;56338.56;4968672;28;20284;-86
2021/05/11 11:17:17;;;;;;;6.80;4.55;;;;;;;-150.07;33.77;56288.41;4978591;28;20029;-86
2021/05/11 11:19:56;;;;;;;9.98;4.68;;;;;;;-150.07;33.95;56259.16;4999955;28;20077;-88
2021/05/11 11:25:14;;;;;;;15.60;6.57;;;;;;;-150.07;34.54;56300.94;4999418;28;20131;-88
2021/05/11 11:27:41;;;;;;;9.57;6.65;;;;;;;-150.07;34.49;56196.44;5001284;28;20112;-87
2021/05/11 11:30:11;;;;;;;11.40;6.05;;;;;;;-150.07;34.40;56409.59;4983910;28;20478;-90
2021/05/11 11:32:38;;;;;;;9.05;5.40;;;;;;;-150.07;33.82;56229.88;4982146;28;20054;-88
2021/05/11 11:35:08;;;;;;;8.10;4.88;;;;;;;-150.07;33.85;56188.09;4981488;28;20030;-86
2021/05/11 11:37:35;;;;;;;12.23;5.27;;;;;;;-150.07;33.29;56250.78;4962076;28;20031;-86
2021/05/11 11:40:05;;;;;;;10.73;5.13;;;;;;;-150.07;32.49;56229.88;4975456;28;20286;-87
2021/05/11 11:42:43;;;;;;;8.13;4.20;;;;;;;-150.07;31.57;56259.16;4990967;28;20407;-88
2021/05/11 11:45:24;;;;;;;6.22;3.67;;;;;;;-150.07;30.91;56175.56;4985416;28;20038;-86
2021/05/11 11:48:06;;;;;;;8.27;4.28;;;;;;;-150.07;30.44;56296.75;4981716;28;20049;-87
2021/05/11 11:50:38;;;;;;;13.38;4.68;;;;;;;-150.07;30.58;56259.16;4981150;28;20037;-87
2021/05/11 11:53:15;;;;;;;5.70;3.72;;;;;;;-150.07;30.51;56183.91;4987993;28;20030;-87
2021/05/11 11:56:36;;;;;;;7.50;4.15;;;;;;;-150.07;30.11;56248.69;4982221;28;20030;-86
2021/05/11 11:58:30;;;;;;;8.27;4.25;;;;;;;-150.07;29.78;56209.00;4979364;28;20615;-87
2021/05/11 12:00:57;;;;;;;7.97;3.42;;;;;;;-150.07;29.96;56342.72;4986232;28;20392;-85
2021/05/11 12:03:24;;;;;;;10.57;5.15;;;;;;;-150.07;29.59;56192.28;4975923;28;20407;-86
2021/05/11 12:05:54;;;;;;;9.63;4.03;;;;;;;-150.07;29.82;56259.16;4975676;28;20496;-86
2021/05/11 12:08:29;;;;;;;6.85;3.55;;;;;;;-150.07;29.41;56313.47;4993109;28;20121;-87
2021/05/11 12:10:58;;;;;;;6.72;4.65;;;;;;;-150.07;29.60;56231.97;4991803;28;20033;-87
2021/05/11 12:13:34;;;;;;;9.63;3.67;;;;;;;-150.07;29.18;56244.50;4978204;28;20149;-86
2021/05/11 12:16:28;;;;;;;11.88;4.22;;;;;;;-150.07;29.19;56269.59;4996543;28;20026;-87
2021/05/11 12:19:11;;;;;;;6.05;3.53;;;;;;;-150.07;29.04;56238.25;4987385;28;20607;-87
2021/05/11 12:21:55;;;;;;;7.47;3.55;;;;;;;-150.07;29.52;56280.03;4984472;28;20194;-87
2021/05/11 12:24:29;;;;;;;8.68;3.97;;;;;;;-150.07;29.19;56359.47;4984297;28;20064;-85
2021/05/11 12:27:18;;;;;;;4.90;3.60;;;;;;;-150.07;29.24;56280.03;4981225;28;20515;-87
2021/05/11 12:30:09;;;;;;;6.57;3.80;;;;;;;-150.07;29.18;56307.22;4985516;28;20100;-87
2021/05/11 12:32:37;;;;;;;8.13;4.55;;;;;;;-150.07;29.78;56284.22;5006695;28;20019;-85
2021/05/11 12:35:09;;;;;;;5.90;3.17;;;;;;;-150.07;29.62;56236.16;4981113;28;20042;-88
2021/05/11 12:37:54;;;;;;;8.90;4.30;;;;;;;-150.07;29.85;56280.03;4979531;28;20480;-86
2021/05/11 12:40:26;;;;;;;8.90;3.42;;;;;;;-150.07;29.60;56512.00;4976597;28;20062;-86
2021/05/11 12:42:57;;;;;;;6.47;4.10;;;;;;;-150.07;29.67;56275.88;4994290;28;20486;-87
2021/05/11 12:45:25;;;;;;;4.05;3.65;;;;;;;-150.07;29.46;56267.50;4977324;28;20064;-87
2021/05/11 12:48:04;;;;;;;5.15;2.72;;;;;;;-150.07;29.67;56267.50;4993955;28;20439;-86
2021/05/11 12:50:38;;;;;;;6.13;2.83;;;;;;;-150.07;29.36;56254.97;4979074;28;20037;-86
2021/05/11 12:53:47;;;;;;;4.88;3.33;;;;;;;-150.07;29.47;56263.31;4978713;28;20038;-88
2021/05/11 12:57:20;;;;;;;11.85;2.63;;;;;;;-150.07;29.08;56254.97;4932389;28;20039;-87
2021/05/11 12:59:36;;;;;;;8.05;3.45;;;;;;;-150.07;29.49;56206.91;5004399;28;20057;-88
2021/05/11 13:14:25;;;;;;;6.05;3.65;;;;;;;-150.07;28.95;56514.09;4997014;28;20601;-89
2021/05/11 13:16:58;;;;;;;4.55;3.47;;;;;;;-150.07;28.76;56129.56;4995823;28;20032;-88
2021/05/11 13:22:36;;;;;;;12.93;3.75;;;;;;;-150.07;28.48;56273.78;4995369;28;20037;-88
2021/05/11 13:25:20;;;;;;;10.68;2.90;;;;;;;-150.07;28.37;56234.06;4960512;28;20027;-87
2021/05/11 13:30:30;;;;;;;3.67;2.30;;;;;;;-150.07;28.53;56407.53;4991656;28;20030;-89
2021/05/11 13:35:24;;;;;;;7.30;2.55;;;;;;;-150.07;28.68;56225.72;4996156;28;20027;-87
2021/05/11 13:37:51;;;;;;;3.05;2.53;;;;;;;-150.07;28.82;56183.91;4995134;28;20511;-88
2021/05/11 13:40:18;;;;;;;3.42;2.08;;;;;;;-150.07;28.97;56501.56;4988537;28;20029;-89
2021/05/11 13:42:45;;;;;;;3.90;2.38;;;;;;;-150.07;28.74;56261.22;4978071;28;20034;-89
2021/05/11 13:45:12;;;;;;;3.15;2.00;;;;;;;-150.07;28.74;56250.78;4983139;28;20030;-88
2021/05/11 13:47:41;;;;;;;2.38;2.17;;;;;;;-150.07;28.87;56263.31;4978441;28;20026;-88
2021/05/11 13:50:11;;;;;;;3.90;1.85;;;;;;;-150.07;28.33;56300.94;4977577;28;20030;-89
2021/05/11 13:52:38;;;;;;;5.82;1.70;;;;;;;-150.07;28.28;56213.16;4979320;28;20032;-89
2021/05/11 13:55:13;;;;;;;3.15;1.80;;;;;;;-150.07;28.46;56227.78;4978238;28;20068;-88
2021/05/11 14:03:10;;;;;;;2.28;1.42;;;;;;;-150.07;28.55;56200.63;4996257;28;20543;-88
2021/05/11 14:05:38;;;;;;;3.78;1.88;;;;;;;-150.07;28.16;56240.34;4963900;28;20515;-88
2021/05/11 14:08:05;;;;;;;2.47;1.50;;;;;;;-150.07;28.07;56455.59;4978970;28;20034;-90
2021/05/11 14:10:32;;;;;;;9.63;2.03;;;;;;;-150.07;27.76;56250.78;4977351;28;20036;-88
2021/05/11 14:12:58;;;;;;;2.67;1.38;;;;;;;-150.07;28.12;56267.50;4996179;28;20025;-88
2021/05/11 14:15:25;;;;;;;2.95;1.77;;;;;;;-150.07;27.89;56200.63;4980779;28;20035;-88
2021/05/11 14:17:52;;;;;;;2.40;1.63;;;;;;;-150.07;27.54;56257.06;4981339;28;20022;-90
2021/05/11 14:20:19;;;;;;;2.17;1.75;;;;;;;-150.07;27.39;56535.00;4991557;28;20144;-89
2021/05/11 14:22:46;;;;;;;4.82;2.17;;;;;;;-150.07;27.51;56242.44;4976983;28;20026;-86
2021/05/11 14:25:13;;;;;;;2.63;1.67;;;;;;;-150.07;27.28;56267.50;4977463;28;20030;-88
2021/05/11 14:27:40;;;;;;;4.35;2.00;;;;;;;-150.07;27.16;56541.28;4981858;28;20033;-89
2021/05/11 14:30:07;;;;;;;2.17;1.88;;;;;;;-150.07;26.88;56240.34;4982820;28;20499;-90
2021/05/11 14:32:34;;;;;;;2.88;1.95;;;;;;;-150.07;26.82;56221.53;4993405;28;20030;-89
2021/05/11 14:35:01;;;;;;;3.38;1.92;;;;;;;-150.07;26.75;56234.06;4993331;28;20058;-90
2021/05/11 14:37:28;;;;;;;3.25;2.00;;;;;;;-150.07;26.72;56215.25;4979182;28;20026;-88
2021/05/11 14:39:56;;;;;;;4.43;1.35;;;;;;;-150.07;26.93;56250.78;4993736;28;20480;-89
2021/05/11 14:42:23;;;;;;;5.07;2.03;;;;;;;-150.07;26.74;56288.41;4977611;28;20050;-88
2021/05/11 14:44:54;;;;;;;4.00;1.98;;;;;;;-150.07;26.47;56305.13;4978092;28;20365;-89
2021/05/11 14:47:21;;;;;;;3.67;1.83;;;;;;;-150.07;26.58;56244.50;4978837;28;20460;-88
2021/05/11 14:49:48;;;;;;;3.72;2.05;;;;;;;-150.07;26.81;56242.44;4998245;28;20030;-87
2021/05/11 14:52:15;;;;;;;5.07;2.25;;;;;;;-150.07;26.75;56229.88;4985000;28;20034;-87
2021/05/11 14:54:42;;;;;;;2.78;1.52;;;;;;;-150.07;26.82;56309.28;4980855;28;20030;-87
2021/05/11 14:57:08;;;;;;;5.20;1.90;;;;;;;-150.07;27.06;56234.06;4981559;28;20051;-85
2021/05/11 14:59:35;;;;;;;4.22;3.28;;;;;;;-150.07;26.95;56209.00;4980571;28;20026;-86
2021/05/11 15:02:04;;;;;;;7.68;2.10;;;;;;;-150.07;26.69;56248.69;4980565;28;20486;-85
2021/05/11 15:04:30;;;;;;;4.47;2.30;;;;;;;-150.07;27.03;56238.25;4995272;28;20046;-89
2021/05/11 15:06:59;;;;;;;9.27;2.47;;;;;;;-150.07;27.13;56413.78;4993796;28;20038;-88
2021/05/11 15:09:27;;;;;;;8.45;1.92;;;;;;;-150.07;27.13;56257.06;5005853;28;20058;-89
2021/05/11 15:11:54;;;;;;;2.55;1.38;;;;;;;-150.07;27.21;56461.84;4982297;28;20042;-89
2021/05/11 15:14:21;;;;;;;2.25;1.38;;;;;;;-150.07;26.63;56388.72;4974650;28;20034;-88
2021/05/11 15:16:57;;;;;;;2.30;1.80;;;;;;;-150.07;27.08;56463.94;4997559;28;20022;-88
2021/05/11 15:19:24;;;;;;;3.53;1.63;;;;;;;-150.07;27.03;56198.53;4968398;28;20037;-88
2021/05/11 15:21:51;;;;;;;4.65;2.30;;;;;;;-150.07;26.99;56252.88;4984349;28;20105;-88
2021/05/11 15:24:19;;;;;;;3.38;1.83;;;;;;;-150.07;26.73;56275.88;4977886;28;20084;-89
2021/05/11 15:26:46;;;;;;;3.58;1.55;;;;;;;-150.07;27.18;56229.88;4976132;28;20057;-88
2021/05/11 15:29:13;;;;;;;1.98;1.63;;;;;;;-150.07;27.15;56269.59;4976709;28;20034;-89